Time;durP1;ratioP1;P1;durP2;ratioP2;P2;SDS_P1;SDS_P2;PMS_P1;PMS_P2;Temp;Humidity;BMP_temperature;BMP_pressure;BME280_temperature;BME280_humidity;BME280_pressure;Samples;Min_cycle;Max_cycle;Signal;HPM_P1;HPM_P2
2023/04/01 00:01:04;;;;;;;2.15;1.10;;;;;;;11.74;100.00;98938.03;5063217;28;20070;-73
2023/04/01 00:03:32;;;;;;;5.20;1.13;;;;;;;11.57;100.00;98953.97;5061238;28;20067;-73
2023/04/01 00:06:01;;;;;;;3.45;1.00;;;;;;;11.78;100.00;98944.22;5060050;28;20045;-72
2023/04/01 00:08:28;;;;;;;1.40;0.77;;;;;;;11.65;100.00;98949.78;5056782;28;20596;-73
2023/04/01 00:10:54;;;;;;;4.15;1.42;;;;;;;11.57;100.00;98953.19;5057713;28;20118;-71
2023/04/01 00:13:21;;;;;;;2.05;0.77;;;;;;;11.52;100.00;98949.00;5056770;28;20147;-73
2023/04/01 00:15:48;;;;;;;2.55;0.70;;;;;;;11.57;100.00;98944.88;5061520;28;20131;-72
2023/04/01 00:18:15;;;;;;;6.57;1.42;;;;;;;11.53;100.00;98941.47;5065765;28;20044;-72
2023/04/01 00:20:47;;;;;;;5.43;1.33;;;;;;;11.51;100.00;98955.00;5060450;28;20060;-72
2023/04/01 00:23:14;;;;;;;4.57;0.90;;;;;;;11.50;100.00;98945.13;5058670;28;20045;-72
2023/04/01 00:25:41;;;;;;;2.78;0.90;;;;;;;11.53;100.00;98947.00;5057001;28;20064;-72
2023/04/01 00:28:08;;;;;;;3.00;0.98;;;;;;;11.55;100.00;98927.97;5059402;28;20076;-71
2023/04/01 00:30:36;;;;;;;4.78;1.15;;;;;;;11.50;100.00;98932.06;5056885;28;20754;-72
2023/04/01 00:33:03;;;;;;;4.82;1.33;;;;;;;11.49;100.00;98938.03;5054456;28;20067;-71
2023/04/01 00:35:30;;;;;;;4.18;1.35;;;;;;;11.30;100.00;98937.06;5062263;28;20080;-73
2023/04/01 00:37:57;;;;;;;5.78;1.45;;;;;;;11.40;100.00;98944.25;5039088;28;20094;-71
2023/04/01 00:40:32;;;;;;;6.00;1.35;;;;;;;11.43;100.00;98937.84;5061419;28;20052;-72
2023/04/01 00:42:59;;;;;;;;;;;;;;;11.41;100.00;98940.25;5059139;28;20533;-72
2023/04/01 00:45:26;;;;;;;5.88;1.58;;;;;;;11.41;100.00;98933.97;5057929;28;20528;-72
2023/04/01 00:47:53;;;;;;;4.07;1.63;;;;;;;11.41;100.00;98933.97;5056361;28;20862;-72
2023/04/01 00:50:22;;;;;;;1.50;0.70;;;;;;;11.48;100.00;98937.25;5066593;28;20056;-72
2023/04/01 00:52:49;;;;;;;0.75;0.68;;;;;;;11.52;100.00;98926.06;5062924;28;20503;-73
2023/04/01 00:55:18;;;;;;;3.55;1.00;;;;;;;11.44;100.00;98946.94;5067933;28;20048;-72
2023/04/01 00:57:46;;;;;;;0.98;0.68;;;;;;;11.56;100.00;98933.06;5060791;28;20132;-73
2023/04/01 01:00:14;;;;;;;1.42;0.55;;;;;;;11.48;100.00;98931.72;5060439;28;20055;-73
2023/04/01 01:02:43;;;;;;;7.20;1.30;;;;;;;11.54;100.00;98937.50;5056757;28;20045;-70
2023/04/01 01:05:15;;;;;;;10.00;0.90;;;;;;;11.51;100.00;98930.06;5062869;28;20595;-72
2023/04/01 01:07:41;;;;;;;3.05;0.90;;;;;;;11.49;100.00;98926.97;5062855;28;20421;-72
2023/04/01 01:10:19;;;;;;;2.17;0.70;;;;;;;11.41;100.00;98942.28;5065187;28;20726;-71
2023/04/01 01:13:01;;;;;;;6.90;1.02;;;;;;;11.38;100.00;98926.53;5059384;28;20131;-71
2023/04/01 01:15:37;;;;;;;2.53;0.80;;;;;;;11.42;100.00;98921.66;5060669;28;20048;-72
2023/04/01 01:18:16;;;;;;;2.38;0.90;;;;;;;11.32;100.00;98928.31;5053204;28;20127;-72
2023/04/01 01:20:49;;;;;;;2.00;1.08;;;;;;;11.39;100.00;98928.88;5058277;28;20056;-70
2023/04/01 01:23:31;;;;;;;1.05;0.75;;;;;;;11.29;100.00;98926.44;5053310;28;20040;-71
2023/04/01 01:26:16;;;;;;;1.13;0.82;;;;;;;11.35;100.00;98921.91;5063732;28;20837;-72
2023/04/01 01:28:55;;;;;;;1.13;0.57;;;;;;;11.33;100.00;98924.31;5061178;28;20067;-71
2023/04/01 01:31:47;;;;;;;1.60;0.88;;;;;;;11.34;100.00;98915.56;5061703;28;20780;-72
2023/04/01 01:34:36;;;;;;;3.92;1.25;;;;;;;11.30;100.00;98923.22;5043221;28;20045;-72
2023/04/01 01:37:10;;;;;;;4.60;0.90;;;;;;;11.20;100.00;98923.59;5064843;28;20072;-72
2023/04/01 01:39:39;;;;;;;3.13;1.10;;;;;;;11.22;100.00;98921.13;5053330;28;20050;-72
2023/04/01 01:42:09;;;;;;;1.48;1.08;;;;;;;11.18;100.00;98920.47;5064601;28;20048;-71
2023/04/01 01:44:38;;;;;;;1.70;1.00;;;;;;;11.30;100.00;98925.25;5067494;28;20498;-72
2023/04/01 01:47:05;;;;;;;2.15;0.80;;;;;;;11.34;100.00;98921.09;5062173;28;20076;-72
2023/04/01 01:49:35;;;;;;;3.78;0.77;;;;;;;11.38;100.00;98915.47;5068621;28;20048;-72
2023/04/01 01:52:03;;;;;;;2.13;1.05;;;;;;;11.37;100.00;98916.69;5060631;28;20049;-71
2023/04/01 01:54:29;;;;;;;1.92;1.30;;;;;;;11.40;100.00;98910.25;5059445;28;20040;-71
2023/04/01 01:57:05;;;;;;;0.50;0.50;;;;;;;11.36;100.00;98912.38;5050498;28;20044;-73
2023/04/01 01:59:34;;;;;;;1.58;0.88;;;;;;;11.27;100.00;98909.50;5056786;28;20052;-71
2023/04/01 02:02:07;;;;;;;1.05;0.50;;;;;;;11.34;100.00;98920.34;5060712;28;20053;-71
2023/04/01 02:04:43;;;;;;;2.20;1.00;;;;;;;11.23;100.00;98904.06;5064105;28;20062;-72
2023/04/01 02:07:17;;;;;;;1.33;0.65;;;;;;;11.35;100.00;98905.28;5060455;28;20056;-72
2023/04/01 02:09:44;;;;;;;4.13;1.20;;;;;;;11.20;100.00;98902.19;5060189;28;20135;-72
2023/04/01 02:12:14;;;;;;;1.48;0.55;;;;;;;11.33;100.00;98907.72;5057232;28;20052;-73
2023/04/01 02:15:00;;;;;;;4.22;1.27;;;;;;;11.13;100.00;98902.44;5058570;28;20699;-73
2023/04/01 02:17:30;;;;;;;8.85;1.23;;;;;;;11.11;100.00;98910.41;5063613;28;20124;-70
2023/04/01 02:20:04;;;;;;;2.13;1.05;;;;;;;11.14;100.00;98923.34;5063010;28;20109;-72
2023/04/01 02:22:36;;;;;;;3.33;0.95;;;;;;;11.15;100.00;98911.06;5060669;28;20128;-71
2023/04/01 02:25:10;;;;;;;1.85;0.82;;;;;;;11.09;100.00;98909.28;5063646;28;20430;-72
2023/04/01 02:27:38;;;;;;;4.13;0.85;;;;;;;11.07;100.00;98920.03;5066249;28;20055;-72
2023/04/01 02:30:06;;;;;;;2.40;1.25;;;;;;;11.19;100.00;98903.44;5066242;28;20048;-71
2023/04/01 02:32:34;;;;;;;2.85;1.05;;;;;;;11.14;100.00;98911.50;5065407;28;20051;-71
2023/04/01 02:35:05;;;;;;;1.42;0.95;;;;;;;11.08;100.00;98911.28;5058960;28;20072;-70
2023/04/01 02:37:32;;;;;;;4.03;0.80;;;;;;;11.15;100.00;98908.31;5059429;28;20057;-72
2023/04/01 02:40:04;;;;;;;2.72;0.80;;;;;;;11.10;100.00;98919.91;5064051;28;20072;-71
2023/04/01 02:42:31;;;;;;;2.78;1.30;;;;;;;11.04;100.00;98913.41;5064188;28;20055;-71
2023/04/01 02:44:57;;;;;;;2.58;1.20;;;;;;;11.15;100.00;98918.59;5071158;28;20076;-71
2023/04/01 02:47:24;;;;;;;0.95;0.43;;;;;;;11.27;100.00;98913.03;5067787;28;20059;-72
2023/04/01 02:49:50;;;;;;;1.65;0.60;;;;;;;11.20;100.00;98923.59;5056355;28;20070;-71
2023/04/01 02:52:17;;;;;;;1.38;0.60;;;;;;;11.15;100.00;98924.13;5047090;28;20048;-71
2023/04/01 02:54:43;;;;;;;1.30;0.65;;;;;;;11.26;100.00;98919.03;5069035;28;20052;-71
2023/04/01 02:57:10;;;;;;;0.73;0.70;;;;;;;11.19;100.00;98924.78;5056725;28;20049;-73
2023/04/01 02:59:36;;;;;;;2.05;0.63;;;;;;;11.29;100.00;98924.44;5059156;28;20061;-72
2023/04/01 03:02:03;;;;;;;2.90;0.77;;;;;;;11.23;100.00;98933.75;5068249;28;20045;-69
2023/04/01 03:04:29;;;;;;;0.52;0.52;;;;;;;11.27;100.00;98931.66;5078109;28;20127;-72
2023/04/01 03:06:56;;;;;;;1.38;0.68;;;;;;;11.32;100.00;98929.09;5075202;28;20052;-71
2023/04/01 03:09:22;;;;;;;2.05;1.02;;;;;;;11.23;100.00;98926.22;5063043;28;20066;-73
2023/04/01 03:11:49;;;;;;;0.35;0.35;;;;;;;11.29;100.00;98938.28;5060879;28;20048;-72
2023/04/01 03:14:15;;;;;;;2.55;1.13;;;;;;;11.23;100.00;98942.84;5063808;28;20526;-71
2023/04/01 03:16:42;;;;;;;1.75;0.95;;;;;;;11.22;100.00;98946.03;5047516;28;20052;-71
2023/04/01 03:19:08;;;;;;;1.80;1.10;;;;;;;11.18;100.00;98948.16;5058971;28;20049;-72
2023/04/01 03:21:35;;;;;;;2.42;1.02;;;;;;;11.12;100.00;98942.41;5059535;28;20056;-73
2023/04/01 03:24:01;;;;;;;2.30;0.90;;;;;;;11.21;100.00;98948.06;5056940;28;20048;-71
2023/04/01 03:26:28;;;;;;;1.02;0.65;;;;;;;11.07;100.00;98954.00;5068315;28;20050;-70
2023/04/01 03:28:55;;;;;;;0.50;0.50;;;;;;;11.15;100.00;98951.81;5063540;28;20055;-72
2023/04/01 03:31:22;;;;;;;2.92;0.75;;;;;;;11.18;100.00;98950.91;5060194;28;20053;-73
2023/04/01 03:33:49;;;;;;;2.35;0.95;;;;;;;11.14;100.00;98950.25;5061629;28;20040;-72
2023/04/01 03:36:16;;;;;;;1.23;0.93;;;;;;;11.13;100.00;98954.25;5067307;28;20059;-71
2023/04/01 03:38:44;;;;;;;1.55;0.80;;;;;;;11.10;100.00;98955.13;5064780;28;20049;-72
2023/04/01 03:41:15;;;;;;;0.63;0.30;;;;;;;11.04;100.00;98946.63;5061307;28;20055;-71
2023/04/01 03:43:42;;;;;;;5.20;0.80;;;;;;;11.13;100.00;98952.25;5058088;28;20053;-73
2023/04/01 03:46:09;;;;;;;0.38;0.30;;;;;;;11.10;100.00;98955.13;5050963;28;20061;-70
2023/04/01 03:48:36;;;;;;;2.40;1.00;;;;;;;11.13;100.00;98959.78;5052004;28;20117;-73
2023/04/01 03:51:07;;;;;;;1.55;0.68;;;;;;;11.14;100.00;98950.25;5061045;28;20107;-73
2023/04/01 03:53:33;;;;;;;0.82;0.70;;;;;;;11.12;100.00;98958.22;5058807;28;20048;-71
2023/04/01 03:56:05;;;;;;;1.38;0.77;;;;;;;11.07;100.00;98961.56;5071855;28;20055;-72
2023/04/01 03:58:31;;;;;;;4.45;1.75;;;;;;;11.08;100.00;98958.34;5071856;28;20175;-74
2023/04/01 04:00:58;;;;;;;5.75;2.33;;;;;;;11.12;100.00;98956.25;5060915;28;20075;-73
2023/04/01 04:03:24;;;;;;;3.05;1.15;;;;;;;11.02;100.00;98960.09;5051287;28;20048;-73
2023/04/01 04:05:51;;;;;;;3.28;1.23;;;;;;;11.05;100.00;98958.44;5061537;28;20486;-72
2023/04/01 04:08:18;;;;;;;3.20;1.85;;;;;;;11.11;100.00;98957.47;5066823;28;20512;-72
2023/04/01 04:10:46;;;;;;;8.38;3.55;;;;;;;10.96;100.00;98961.88;5047943;28;20059;-73
2023/04/01 04:13:12;;;;;;;8.05;2.45;;;;;;;10.98;100.00;98966.97;5068793;28;20049;-73
2023/04/01 04:15:39;;;;;;;2.72;1.55;;;;;;;11.08;100.00;98966.66;5065846;28;20049;-72
2023/04/01 04:18:05;;;;;;;3.70;1.98;;;;;;;10.99;100.00;98961.00;5063950;28;20061;-71
2023/04/01 04:20:32;;;;;;;4.63;1.92;;;;;;;11.10;100.00;98968.97;5059530;28;20044;-72
2023/04/01 04:23:00;;;;;;;2.63;1.30;;;;;;;11.21;100.00;98980.50;5063656;28;20053;-72
2023/04/01 04:25:26;;;;;;;5.47;2.42;;;;;;;11.12;100.00;98966.53;5064273;28;20655;-71
2023/04/01 04:27:53;;;;;;;4.75;1.85;;;;;;;11.05;100.00;98952.91;5059462;28;20055;-72
2023/04/01 04:30:19;;;;;;;2.05;1.38;;;;;;;11.18;100.00;98973.06;5053673;28;20144;-72
2023/04/01 04:32:46;;;;;;;6.47;2.30;;;;;;;11.05;100.00;98975.84;5065641;28;20418;-71
2023/04/01 04:35:12;;;;;;;6.22;2.58;;;;;;;11.08;100.00;98982.47;5074956;28;20092;-71
2023/04/01 04:37:39;;;;;;;7.70;2.85;;;;;;;11.20;100.00;98968.63;5064401;28;20052;-73
2023/04/01 04:40:06;;;;;;;1.95;1.15;;;;;;;11.18;100.00;98982.16;5063261;28;20053;-71
2023/04/01 04:42:33;;;;;;;2.92;1.10;;;;;;;11.18;100.00;98979.38;5063874;28;20048;-72
2023/04/01 04:44:59;;;;;;;9.48;2.50;;;;;;;11.22;100.00;98979.25;5056965;28;20530;-72
2023/04/01 04:47:26;;;;;;;1.40;1.00;;;;;;;11.29;100.00;98981.81;5058526;28;20052;-70
2023/04/01 04:49:52;;;;;;;5.63;1.92;;;;;;;11.23;100.00;98986.34;5064308;28;20083;-71
2023/04/01 04:52:19;;;;;;;3.28;1.00;;;;;;;11.18;100.00;98984.13;5053156;28;20059;-71
2023/04/01 04:54:45;;;;;;;4.88;1.63;;;;;;;11.22;100.00;98993.09;5060263;28;20043;-72
2023/04/01 04:57:12;;;;;;;4.05;1.70;;;;;;;11.25;100.00;98981.16;5066095;28;20048;-70
2023/04/01 04:59:38;;;;;;;1.52;0.98;;;;;;;11.18;100.00;98990.47;5058205;28;20049;-72
2023/04/01 05:02:05;;;;;;;4.15;1.98;;;;;;;11.11;100.00;98996.22;5057492;28;20053;-71
2023/04/01 05:04:35;;;;;;;1.13;0.60;;;;;;;11.20;100.00;98993.53;5056480;28;20495;-69
2023/04/01 05:07:02;;;;;;;2.45;1.60;;;;;;;11.22;100.00;98991.13;5045233;28;20131;-72
2023/04/01 05:09:29;;;;;;;2.40;1.35;;;;;;;11.21;100.00;98995.13;5062424;28;20087;-71
2023/04/01 05:11:55;;;;;;;3.20;1.15;;;;;;;11.24;100.00;98994.19;5057189;28;20044;-68
2023/04/01 05:14:22;;;;;;;1.50;1.30;;;;;;;11.23;100.00;99000.19;5058224;28;20053;-73
2023/04/01 05:16:49;;;;;;;3.75;1.95;;;;;;;11.22;100.00;98995.88;5034667;28;20055;-73
2023/04/01 05:19:15;;;;;;;2.70;1.58;;;;;;;11.27;100.00;98998.84;5054547;28;20106;-73
2023/04/01 05:21:42;;;;;;;2.22;1.30;;;;;;;11.22;100.00;98999.41;5061123;28;20423;-72
2023/04/01 05:24:09;;;;;;;2.70;1.48;;;;;;;11.28;100.00;98994.09;5060290;28;20489;-73
2023/04/01 05:26:36;;;;;;;6.78;2.33;;;;;;;11.24;100.00;98998.97;5067503;28;20058;-73
2023/04/01 05:29:04;;;;;;;4.43;1.85;;;;;;;11.33;100.00;99001.84;5063918;28;20479;-72
2023/04/01 05:31:31;;;;;;;5.25;2.60;;;;;;;11.35;100.00;99000.19;5057319;28;20059;-71
2023/04/01 05:33:57;;;;;;;5.00;2.35;;;;;;;11.31;100.00;99012.59;5040811;28;20040;-73
2023/04/01 05:36:24;;;;;;;3.45;1.67;;;;;;;11.26;100.00;99010.38;5060609;28;20067;-73
2023/04/01 05:38:50;;;;;;;3.15;1.75;;;;;;;11.32;100.00;99016.91;5053271;28;20045;-72
2023/04/01 05:41:17;;;;;;;2.05;1.15;;;;;;;11.31;100.00;99012.59;5069576;28;20048;-72
2023/04/01 05:43:43;;;;;;;4.32;1.77;;;;;;;11.30;100.00;99011.06;5056270;28;20502;-72
2023/04/01 05:46:10;;;;;;;3.42;1.85;;;;;;;11.32;100.00;99012.16;5058444;28;20503;-70
2023/04/01 05:48:36;;;;;;;3.08;1.67;;;;;;;11.26;100.00;99013.13;5059809;28;20139;-72
2023/04/01 05:51:04;;;;;;;2.90;1.13;;;;;;;11.29;100.00;99012.25;5051651;28;20054;-72
2023/04/01 05:53:30;;;;;;;2.42;1.38;;;;;;;11.35;100.00;99016.03;5049408;28;20044;-72
2023/04/01 05:56:02;;;;;;;4.18;1.55;;;;;;;11.34;100.00;99020.03;5059963;28;20690;-71
2023/04/01 05:58:29;;;;;;;3.80;1.90;;;;;;;11.21;100.00;99033.09;5064032;28;20048;-72
2023/04/01 06:01:07;;;;;;;4.22;1.48;;;;;;;11.30;100.00;99022.13;5056002;28;20052;-74
2023/04/01 06:03:39;;;;;;;8.30;2.45;;;;;;;11.36;100.00;99020.34;5058779;28;20044;-73
2023/04/01 06:06:14;;;;;;;3.47;1.05;;;;;;;11.28;100.00;99027.31;5064015;28;20445;-72
2023/04/01 06:08:42;;;;;;;3.60;1.60;;;;;;;11.37;100.00;99030.22;5054368;28;20514;-72
2023/04/01 06:11:18;;;;;;;0.77;0.73;;;;;;;11.32;100.00;99028.00;5062993;28;20411;-73
2023/04/01 06:14:11;;;;;;;1.95;1.17;;;;;;;11.31;100.00;99024.44;5049992;28;20055;-72
2023/04/01 06:16:59;;;;;;;2.65;1.80;;;;;;;11.21;100.00;99033.88;5055856;28;20854;-72
2023/04/01 06:19:32;;;;;;;5.50;2.75;;;;;;;11.36;100.00;99036.97;5070113;28;20430;-71
2023/04/01 06:22:02;;;;;;;5.03;1.88;;;;;;;11.34;100.00;99042.19;5046351;28;20053;-72
2023/04/01 06:24:59;;;;;;;9.75;4.07;;;;;;;11.22;100.00;99040.94;5068301;28;20057;-73
2023/04/01 06:27:45;;;;;;;3.67;1.85;;;;;;;11.13;100.00;99037.28;5060384;28;20067;-73
2023/04/01 06:30:40;;;;;;;3.92;1.83;;;;;;;11.20;100.00;99043.38;5056911;28;20527;-71
2023/04/01 06:33:29;;;;;;;13.57;3.22;;;;;;;11.07;100.00;99047.34;5055619;28;20044;-74
2023/04/01 06:36:21;;;;;;;3.53;1.30;;;;;;;11.18;100.00;99053.34;5049771;28;20082;-71
2023/04/01 06:39:11;;;;;;;4.05;1.40;;;;;;;11.19;100.00;99047.38;5063895;28;20048;-73
2023/04/01 06:41:46;;;;;;;3.97;2.10;;;;;;;11.14;100.00;99047.91;5053449;28;20043;-73
2023/04/01 06:44:18;;;;;;;0.70;0.70;;;;;;;11.19;100.00;99057.66;5064211;28;20124;-72
2023/04/01 06:46:52;;;;;;;3.72;1.63;;;;;;;11.17;100.00;99058.09;5043485;28;20045;-71
2023/04/01 06:49:25;;;;;;;4.40;1.50;;;;;;;11.17;100.00;99051.78;5053286;28;20053;-73
2023/04/01 06:52:40;;;;;;;2.88;1.70;;;;;;;11.25;100.00;99053.91;5068209;28;20052;-74
2023/04/01 06:55:12;;;;;;;3.28;1.65;;;;;;;11.23;100.00;99052.78;4978075;28;20049;-72
2023/04/01 06:57:44;;;;;;;5.97;2.65;;;;;;;11.27;100.00;99059.75;5062901;28;20055;-74
2023/04/01 07:00:26;;;;;;;5.60;2.35;;;;;;;11.18;100.00;99064.41;5056766;28;20055;-73
2023/04/01 07:03:15;;;;;;;2.92;1.27;;;;;;;11.24;100.00;99063.41;5055599;28;20052;-74
2023/04/01 07:05:42;;;;;;;6.47;2.35;;;;;;;11.23;100.00;99056.34;5057301;28;20490;-75
2023/04/01 07:08:17;;;;;;;7.80;2.88;;;;;;;11.14;100.00;99060.97;5053850;28;20052;-74
2023/04/01 07:10:44;;;;;;;9.07;4.18;;;;;;;11.31;100.00;99062.44;5068513;28;20047;-72
2023/04/01 07:13:50;;;;;;;12.80;5.65;;;;;;;11.27;100.00;99070.09;5066410;28;20051;-73
2023/04/01 07:16:25;;;;;;;6.13;2.53;;;;;;;11.19;100.00;99061.19;5065966;28;20413;-72
2023/04/01 07:18:57;;;;;;;13.40;4.97;;;;;;;11.37;100.00;99072.50;5057335;28;20187;-73
2023/04/01 07:21:30;;;;;;;7.38;2.85;;;;;;;11.22;100.00;99074.16;5066689;28;20156;-72
2023/04/01 07:24:05;;;;;;;5.35;2.47;;;;;;;11.29;100.00;99079.50;5060466;28;20049;-72
2023/04/01 07:26:32;;;;;;;11.45;3.65;;;;;;;11.35;100.00;99077.72;5071178;28;20052;-73
2023/04/01 07:28:59;;;;;;;5.20;2.38;;;;;;;11.33;100.00;99076.59;5076381;28;20147;-72
2023/04/01 07:31:30;;;;;;;6.95;3.25;;;;;;;11.33;100.00;99084.91;5068762;28;20043;-72
2023/04/01 07:34:09;;;;;;;3.80;1.98;;;;;;;11.30;100.00;99083.81;5059609;28;20055;-73
2023/04/01 07:36:44;;;;;;;13.80;5.43;;;;;;;11.45;100.00;99086.94;5065597;28;20053;-72
2023/04/01 07:39:34;;;;;;;5.22;2.40;;;;;;;11.41;100.00;99081.47;5049608;28;20048;-73
2023/04/01 07:42:36;;;;;;;6.47;3.10;;;;;;;11.42;100.00;99093.34;5064026;28;20045;-73
2023/04/01 07:45:24;;;;;;;12.07;5.20;;;;;;;11.49;100.00;99087.59;5051870;28;20037;-72
2023/04/01 07:47:57;;;;;;;13.05;3.33;;;;;;;11.43;100.00;99092.91;5074044;28;20044;-72
2023/04/01 07:50:52;;;;;;;3.40;2.00;;;;;;;11.44;100.00;99090.91;5061181;28;20053;-75
2023/04/01 07:53:27;;;;;;;6.85;3.10;;;;;;;11.41;100.00;99103.63;5065414;28;20045;-75
2023/04/01 07:55:59;;;;;;;;;;;;;;;11.44;100.00;99102.75;5059144;28;20059;-72
2023/04/01 07:58:30;;;;;;;1.60;1.38;;;;;;;11.49;100.00;99107.75;5064546;28;19939;-70
2023/04/01 08:01:11;;;;;;;6.03;2.38;;;;;;;11.42;100.00;99099.66;5068629;28;20044;-74
2023/04/01 08:04:25;;;;;;;6.03;3.00;;;;;;;11.44;100.00;99113.06;5065638;28;20044;-71
2023/04/01 08:06:51;;;;;;;14.68;5.35;;;;;;;11.57;100.00;99116.59;5059583;28;20586;-75
2023/04/01 08:09:38;;;;;;;12.68;4.30;;;;;;;11.47;100.00;99115.72;5061828;28;20068;-72
2023/04/01 08:12:07;;;;;;;3.70;2.50;;;;;;;11.51;100.00;99118.41;5060399;28;20510;-72
2023/04/01 08:14:40;;;;;;;9.52;3.17;;;;;;;11.50;100.00;99122.38;5061813;28;20082;-71
2023/04/01 08:17:38;;;;;;;6.07;2.35;;;;;;;11.48;100.00;99127.59;5065478;28;20056;-72
2023/04/01 08:20:18;;;;;;;13.52;6.13;;;;;;;11.59;100.00;99126.06;5043705;28;20055;-72
2023/04/01 08:22:57;;;;;;;7.95;3.47;;;;;;;11.43;100.00;99139.19;5055699;28;20082;-72
2023/04/01 08:25:26;;;;;;;11.52;4.88;;;;;;;11.56;100.00;99140.78;5055625;28;20138;-73
2023/04/01 08:28:04;;;;;;;7.72;2.72;;;;;;;11.53;100.00;99138.88;5073497;28;20053;-72
2023/04/01 08:30:47;;;;;;;7.97;2.80;;;;;;;11.57;100.00;99139.56;5064234;28;20060;-71
2023/04/01 08:33:21;;;;;;;6.90;2.63;;;;;;;11.54;100.00;99134.91;5061335;28;20053;-72
2023/04/01 08:36:09;;;;;;;8.57;3.17;;;;;;;11.53;100.00;99138.09;5066453;28;20039;-72
2023/04/01 08:38:51;;;;;;;3.65;1.90;;;;;;;11.55;100.00;99142.00;5072260;28;20118;-71
2023/04/01 08:41:33;;;;;;;7.35;3.40;;;;;;;11.48;100.00;99152.50;5061925;28;20060;-71
2023/04/01 08:44:37;;;;;;;9.60;3.88;;;;;;;11.51;100.00;99151.63;5051236;28;20041;-71
2023/04/01 08:47:22;;;;;;;11.40;4.32;;;;;;;11.55;100.00;99160.59;5069247;28;20058;-72
2023/04/01 08:50:13;;;;;;;3.30;1.83;;;;;;;11.62;100.00;99149.34;5060241;28;20787;-72
2023/04/01 08:53:03;;;;;;;10.93;4.57;;;;;;;11.71;100.00;99166.84;5058791;28;20053;-71
2023/04/01 08:55:54;;;;;;;6.88;3.10;;;;;;;11.56;100.00;99170.47;5060839;28;20044;-72
2023/04/01 08:58:56;;;;;;;11.07;3.90;;;;;;;11.42;100.00;99168.91;5067011;28;20515;-72
2023/04/01 09:01:43;;;;;;;7.50;3.45;;;;;;;11.48;100.00;99174.66;5054040;28;20036;-72
2023/04/01 09:04:47;;;;;;;9.25;4.18;;;;;;;11.52;100.00;99184.44;5060434;28;20504;-72
2023/04/01 09:07:58;;;;;;;8.75;4.72;;;;;;;11.61;100.00;99170.72;5062142;28;20561;-75
2023/04/01 09:10:49;;;;;;;16.20;6.25;;;;;;;11.55;100.00;99183.56;4989197;28;20240;-72
2023/04/01 09:13:34;;;;;;;16.88;6.30;;;;;;;11.46;100.00;99179.84;4988363;28;20213;-70
2023/04/01 09:16:17;;;;;;;16.30;6.00;;;;;;;11.49;100.00;99187.28;5052408;28;20049;-72
2023/04/01 09:18:56;;;;;;;12.20;5.57;;;;;;;11.45;100.00;99195.72;5062767;28;20153;-72
2023/04/01 09:21:32;;;;;;;4.30;2.30;;;;;;;11.51;100.00;99193.19;5059218;28;20055;-71
2023/04/01 09:24:17;;;;;;;17.98;8.10;;;;;;;11.43;100.00;99192.59;5057485;28;20049;-72
2023/04/01 09:27:09;;;;;;;7.13;2.50;;;;;;;11.52;100.00;99198.28;5066046;28;20059;-73
2023/04/01 09:29:54;;;;;;;8.82;4.28;;;;;;;11.54;100.00;99211.69;5069654;28;20534;-74
2023/04/01 09:32:21;;;;;;;18.10;4.68;;;;;;;11.56;100.00;99212.78;5064512;28;20047;-72
2023/04/01 09:35:02;;;;;;;19.13;8.15;;;;;;;11.73;100.00;99213.50;5066265;28;20044;-71
2023/04/01 09:37:35;;;;;;;12.60;6.20;;;;;;;11.67;100.00;99215.28;5063452;28;20048;-75
2023/04/01 09:40:18;;;;;;;20.08;8.70;;;;;;;11.80;100.00;99216.06;5070094;28;20048;-72
2023/04/01 09:42:51;;;;;;;16.33;7.13;;;;;;;11.69;100.00;99218.38;5063946;28;20047;-72
2023/04/01 09:45:33;;;;;;;21.52;9.50;;;;;;;11.85;100.00;99216.31;5061962;28;20045;-73
2023/04/01 09:48:13;;;;;;;11.73;5.47;;;;;;;11.86;100.00;99220.66;5074415;28;20045;-72
2023/04/01 09:50:57;;;;;;;7.70;4.20;;;;;;;11.79;100.00;99228.38;5062827;28;20310;-73
2023/04/01 09:53:57;;;;;;;13.18;6.15;;;;;;;11.80;100.00;99229.94;5064309;28;20086;-73
2023/04/01 09:56:59;;;;;;;18.45;8.75;;;;;;;11.85;100.00;99230.16;5063407;28;20052;-74
2023/04/01 09:59:51;;;;;;;15.05;6.57;;;;;;;11.75;100.00;99241.56;5030009;28;20094;-72
2023/04/01 10:02:42;;;;;;;18.92;7.35;;;;;;;11.80;100.00;99230.72;5068555;28;20041;-72
2023/04/01 10:05:20;;;;;;;9.20;3.78;;;;;;;11.97;100.00;99231.41;5062981;28;20045;-71
2023/04/01 10:08:08;;;;;;;14.98;6.07;;;;;;;11.86;100.00;99237.28;5050234;28;20511;-72
2023/04/01 10:10:54;;;;;;;10.05;4.20;;;;;;;11.98;100.00;99246.81;5064117;28;20067;-72
2023/04/01 10:13:39;;;;;;;9.38;4.45;;;;;;;11.93;100.00;99241.81;5058639;28;20128;-73
2023/04/01 10:16:21;;;;;;;18.25;6.95;;;;;;;11.99;100.00;99243.63;5045077;28;20048;-72
2023/04/01 10:18:56;;;;;;;19.02;7.22;;;;;;;11.83;100.00;99257.56;5070832;28;20048;-72
2023/04/01 10:22:11;;;;;;;11.40;5.38;;;;;;;11.86;100.00;99255.88;5065656;28;20517;-71
2023/04/01 10:25:05;;;;;;;9.55;3.75;;;;;;;12.00;100.00;99256.25;5058382;28;20147;-74
2023/04/01 10:28:00;;;;;;;15.90;6.63;;;;;;;11.94;100.00;99255.22;5036656;28;20075;-73
2023/04/01 10:30:55;;;;;;;10.27;3.72;;;;;;;12.04;100.00;99248.59;5062466;28;20076;-74
2023/04/01 10:33:38;;;;;;;6.38;3.00;;;;;;;12.10;100.00;99257.94;5055058;28;20045;-73
2023/04/01 10:36:29;;;;;;;11.50;4.38;;;;;;;12.00;100.00;99261.00;5063452;28;20510;-72
2023/04/01 10:39:33;;;;;;;14.70;4.63;;;;;;;12.01;100.00;99260.56;5061465;28;20049;-73
2023/04/01 10:42:39;;;;;;;8.55;3.95;;;;;;;12.18;100.00;99262.03;5056006;28;20052;-72
2023/04/01 10:45:15;;;;;;;9.88;4.32;;;;;;;12.20;100.00;99269.91;5070596;28;20048;-72
2023/04/01 10:48:09;;;;;;;8.05;3.15;;;;;;;12.23;100.00;99271.78;5057644;28;20522;-72
2023/04/01 10:51:02;;;;;;;15.05;6.28;;;;;;;12.10;100.00;99268.22;5075214;28;20050;-72
2023/04/01 10:53:45;;;;;;;10.38;4.43;;;;;;;12.13;100.00;99264.56;5058771;28;20399;-72
2023/04/01 10:56:25;;;;;;;6.45;2.85;;;;;;;12.04;100.00;99268.00;5069491;28;20052;-71
2023/04/01 10:59:33;;;;;;;11.95;4.57;;;;;;;12.03;100.00;99276.75;5067598;28;20418;-71
2023/04/01 11:02:18;;;;;;;7.20;3.63;;;;;;;12.17;100.00;99268.00;5020381;28;20060;-74
2023/04/01 11:04:51;;;;;;;8.68;4.30;;;;;;;12.19;100.00;99288.53;5063849;28;20053;-73
2023/04/01 11:07:45;;;;;;;13.88;5.07;;;;;;;12.16;100.00;99283.09;5063442;28;20049;-73
2023/04/01 11:10:46;;;;;;;11.68;4.53;;;;;;;12.15;100.00;99290.63;5065513;28;20044;-74
2023/04/01 11:13:27;;;;;;;9.27;3.95;;;;;;;12.12;100.00;99297.06;5061999;28;20063;-74
2023/04/01 11:16:32;;;;;;;6.18;2.92;;;;;;;12.13;100.00;99298.63;5061385;28;20700;-75
2023/04/01 11:19:30;;;;;;;14.23;5.33;;;;;;;12.29;100.00;99292.97;5064254;28;20218;-72
2023/04/01 11:22:06;;;;;;;13.20;5.97;;;;;;;12.30;100.00;99296.53;5066474;28;20139;-72
2023/04/01 11:24:36;;;;;;;12.48;4.95;;;;;;;12.30;100.00;99302.06;5066192;28;20051;-74
2023/04/01 11:27:41;;;;;;;7.15;3.28;;;;;;;12.17;100.00;99306.81;5067620;28;20544;-73
2023/04/01 11:30:18;;;;;;;10.10;3.60;;;;;;;12.17;100.00;99309.59;5047221;28;20041;-74
2023/04/01 11:33:02;;;;;;;7.28;3.35;;;;;;;12.26;100.00;99306.97;5054648;28;20049;-74
2023/04/01 11:35:44;;;;;;;11.13;4.25;;;;;;;12.34;100.00;99313.84;5067914;28;20113;-74
2023/04/01 11:38:24;;;;;;;11.98;4.10;;;;;;;12.31;100.00;99320.25;5063340;28;20061;-74
2023/04/01 11:41:09;;;;;;;10.50;4.03;;;;;;;12.41;100.00;99314.41;5056049;28;20036;-73
2023/04/01 11:43:53;;;;;;;9.02;3.00;;;;;;;12.44;100.00;99316.28;5060431;28;20058;-74
2023/04/01 11:46:32;;;;;;;8.20;2.50;;;;;;;12.43;100.00;99325.06;5063195;28;20052;-75
2023/04/01 11:49:25;;;;;;;9.25;4.10;;;;;;;12.49;100.00;99326.81;5068120;28;20558;-74
2023/04/01 11:52:17;;;;;;;4.00;1.95;;;;;;;12.41;100.00;99319.94;5060162;28;20048;-73
2023/04/01 11:55:02;;;;;;;10.23;3.42;;;;;;;12.38;100.00;99340.25;5044500;28;20060;-73
2023/04/01 11:57:40;;;;;;;8.50;3.45;;;;;;;12.42;100.00;99334.59;5068550;28;20048;-74
2023/04/01 12:00:28;;;;;;;10.25;4.18;;;;;;;12.37;100.00;99341.47;5068169;28;20131;-73
2023/04/01 12:03:29;;;;;;;7.55;3.45;;;;;;;12.35;100.00;99338.34;5053743;28;20526;-74
2023/04/01 12:06:12;;;;;;;6.20;3.08;;;;;;;12.47;100.00;99345.13;5055836;28;20494;-73